createdAt,value
2019-05-20T00:00:49.921Z,24.20
2019-05-20T00:05:56.741Z,25.30
2019-05-20T00:11:03.586Z,24.32
2019-05-20T00:16:10.534Z,24.65
2019-05-20T00:21:18.458Z,25.48
2019-05-20T00:26:25.560Z,25.47
2019-05-20T00:31:32.581Z,26.17
2019-05-20T00:36:39.576Z,27.17
2019-05-20T00:41:46.466Z,27.00
2019-05-20T00:46:53.480Z,27.90
2019-05-20T00:52:00.440Z,28.90
2019-05-20T00:57:07.441Z,28.70
2019-05-20T01:02:14.457Z,29.40
2019-05-20T01:07:21.501Z,30.03
2019-05-20T01:12:28.518Z,29.57
2019-05-20T01:22:41.536Z,27.17
2019-05-20T01:27:48.449Z,28.00
2019-05-20T01:32:55.476Z,26.70
2019-05-20T01:38:02.485Z,27.15
2019-05-20T01:43:09.426Z,26.35
2019-05-20T01:53:22.464Z,26.75
2019-05-20T01:58:29.461Z,26.73
2019-05-20T02:08:42.504Z,27.02
2019-05-20T02:13:56.677Z,28.80
2019-05-20T02:19:03.559Z,29.77
2019-05-20T02:24:10.557Z,28.70
2019-05-20T02:29:17.568Z,29.25
2019-05-20T02:34:24.485Z,30.77
2019-05-20T02:44:37.457Z,30.40
2019-05-20T02:49:44.506Z,29.27
2019-05-20T02:59:57.468Z,31.85
2019-05-20T03:05:04.603Z,30.97
2019-05-20T03:15:17.495Z,32.50
2019-05-20T03:20:24.582Z,32.17
2019-05-20T03:25:32.618Z,31.18
2019-05-20T03:30:39.495Z,32.13
2019-05-20T03:52:18.254Z,37.30
2019-05-20T03:57:25.447Z,31.30
2019-05-20T04:02:32.457Z,28.40
2019-05-20T04:07:39.457Z,28.70
2019-05-20T04:17:52.443Z,27.87
2019-05-20T04:23:01.274Z,27.70
2019-05-20T04:33:15.436Z,26.23
2019-05-20T04:38:22.464Z,25.17
2019-05-20T04:43:29.454Z,24.92
2019-05-20T04:53:43.464Z,26.82
2019-05-20T04:58:50.439Z,25.80
2019-05-20T05:03:57.451Z,24.43
2019-05-20T05:09:06.111Z,23.02
2019-05-20T05:19:19.486Z,20.77
2019-05-20T05:24:26.574Z,19.32
2019-05-20T05:29:33.448Z,19.87
2019-05-20T05:34:40.609Z,18.67
2019-05-20T05:39:47.488Z,17.92
2019-05-20T05:44:54.462Z,18.15
2019-05-20T05:50:01.463Z,17.57
2019-05-20T05:55:08.593Z,17.02
2019-05-20T06:00:15.920Z,17.17
2019-05-20T06:05:23.002Z,17.57
2019-05-20T06:10:35.668Z,16.02
2019-05-20T06:15:41.612Z,15.67
2019-05-20T06:20:48.467Z,15.20
2019-05-20T06:25:55.557Z,15.00
2019-05-20T06:31:02.478Z,14.03
2019-05-20T06:41:17.106Z,12.07
2019-05-20T06:46:24.270Z,11.80
2019-05-20T06:56:37.534Z,12.13
2019-05-20T07:06:52.915Z,10.80
2019-05-20T07:17:06.271Z,9.75
2019-05-20T07:22:13.438Z,10.00
2019-05-20T07:27:23.397Z,9.10
2019-05-20T07:37:36.490Z,9.60
2019-05-20T07:42:43.908Z,9.75
2019-05-20T08:03:13.452Z,8.35
2019-05-20T08:08:22.450Z,9.40
2019-05-20T08:13:29.923Z,8.93
2019-05-20T08:20:31.231Z,9.38
2019-05-20T08:40:56.396Z,9.28
2019-05-20T08:46:03.478Z,16.02
2019-05-20T08:56:16.400Z,13.15
2019-05-20T09:01:23.571Z,10.00
2019-05-20T09:06:30.614Z,7.83
2019-05-20T09:11:37.862Z,7.75
2019-05-20T09:21:50.475Z,6.80
2019-05-20T09:26:57.570Z,6.83
2019-05-20T09:37:10.589Z,5.78
2019-05-20T09:42:19.611Z,5.78
2019-05-20T09:52:33.452Z,5.30
2019-05-20T09:57:40.578Z,5.60
2019-05-20T10:02:47.575Z,5.60
2019-05-20T10:07:54.580Z,5.55
2019-05-20T10:13:02.669Z,5.67
2019-05-20T10:18:09.903Z,12.50
2019-05-20T10:23:19.480Z,24.20
2019-05-20T10:28:27.457Z,6.85
2019-05-20T10:33:36.966Z,7.65
2019-05-20T10:38:58.037Z,9.13
2019-05-20T10:43:55.462Z,10.93
2019-05-20T10:49:03.764Z,6.92
2019-05-20T10:54:10.565Z,5.90
2019-05-20T10:59:17.567Z,5.50
2019-05-20T11:04:24.582Z,5.22
2019-05-20T11:09:33.449Z,5.22
2019-05-20T11:14:40.571Z,5.30
2019-05-20T11:19:47.464Z,6.53
2019-05-20T11:24:56.697Z,11.00
2019-05-20T11:30:03.696Z,5.53
2019-05-20T11:35:11.534Z,4.90
2019-05-20T11:40:26.633Z,5.35
2019-05-20T11:45:34.607Z,4.70
2019-05-20T11:50:41.581Z,5.20
2019-05-20T11:55:48.567Z,5.30
2019-05-20T12:06:01.543Z,6.35
2019-05-20T12:11:08.593Z,6.10
2019-05-20T12:16:15.587Z,6.03
2019-05-20T12:26:29.591Z,6.47
2019-05-20T12:31:36.459Z,6.05
2019-05-20T12:41:49.439Z,6.27
2019-05-20T12:46:56.439Z,6.33
2019-05-20T12:52:04.671Z,5.72
2019-05-20T12:57:11.588Z,5.72
2019-05-20T13:02:22.537Z,6.10
2019-05-20T13:07:29.485Z,6.35
2019-05-20T13:12:36.712Z,6.47
2019-05-20T13:17:45.560Z,7.08
2019-05-20T13:22:52.909Z,7.10
2019-05-20T13:28:00.408Z,7.12
2019-05-20T13:33:07.555Z,9.73
2019-05-20T13:38:14.468Z,10.03
2019-05-20T13:43:21.506Z,8.60
2019-05-20T13:48:28.580Z,7.53
2019-05-20T13:53:35.461Z,9.45
2019-05-20T13:58:42.442Z,8.58
2019-05-20T14:03:49.458Z,9.25
2019-05-20T14:08:56.584Z,8.73
2019-05-20T14:14:03.594Z,8.18
2019-05-20T14:19:10.606Z,8.95
2019-05-20T14:24:17.450Z,9.33
2019-05-20T14:29:24.608Z,9.58
2019-05-20T14:34:32.155Z,10.50
2019-05-20T14:39:40.786Z,11.63
2019-05-20T14:44:47.612Z,11.97
2019-05-20T14:49:54.598Z,14.43
2019-05-20T14:55:01.507Z,20.00
2019-05-20T15:00:09.750Z,17.57
2019-05-20T15:05:16.920Z,20.80
2019-05-20T15:10:24.246Z,26.45
2019-05-20T15:15:34.047Z,13.78
2019-05-20T15:20:41.607Z,13.47
2019-05-20T15:25:48.500Z,13.80
2019-05-20T15:30:55.586Z,15.95
2019-05-20T15:41:08.471Z,11.18
2019-05-20T15:46:15.478Z,11.60
2019-05-20T15:56:28.434Z,10.30
2019-05-20T16:01:35.598Z,11.22
2019-05-20T16:16:57.137Z,11.15
2019-05-20T16:37:22.469Z,12.10
2019-05-20T16:42:29.676Z,15.80
2019-05-20T16:47:36.601Z,14.70
2019-05-20T16:52:44.468Z,17.77
2019-05-20T16:57:51.581Z,19.27
2019-05-20T17:02:58.607Z,21.40
2019-05-20T17:08:05.612Z,24.10
2019-05-20T17:13:12.583Z,22.77
2019-05-20T17:18:19.579Z,22.30
2019-05-20T17:23:26.558Z,21.95
2019-05-20T17:28:33.584Z,22.93
2019-05-20T17:33:40.576Z,22.48
2019-05-20T17:38:47.503Z,22.98
2019-05-20T17:43:54.483Z,21.37
2019-05-20T17:49:01.602Z,20.62
2019-05-20T17:54:08.481Z,22.37
2019-05-20T17:59:15.595Z,26.15
2019-05-20T18:04:22.451Z,27.15
2019-05-20T18:09:31.267Z,29.32
2019-05-20T18:14:39.373Z,33.80
2019-05-20T18:19:46.461Z,32.23
2019-05-20T18:24:53.599Z,32.55
2019-05-20T18:30:00.583Z,33.18
2019-05-20T18:35:09.077Z,34.27
2019-05-20T18:40:17.245Z,33.63
2019-05-20T18:45:24.436Z,36.98
2019-05-20T18:50:33.077Z,35.26
2019-05-20T18:55:40.269Z,38.03
2019-05-20T19:10:59.432Z,36.53
2019-05-20T19:16:06.936Z,28.10
2019-05-20T19:21:14.108Z,20.65
2019-05-20T19:26:25.037Z,18.37
2019-05-20T19:31:30.479Z,18.82
2019-05-20T19:36:37.479Z,17.50
2019-05-20T19:41:44.598Z,14.83
2019-05-20T19:46:51.594Z,14.68
2019-05-20T19:51:58.452Z,15.05
2019-05-20T19:57:06.580Z,16.27
2019-05-20T20:02:17.532Z,19.17
2019-05-20T20:07:22.603Z,22.65
2019-05-20T20:12:29.497Z,24.57
2019-05-20T20:17:36.493Z,28.42
2019-05-20T20:22:43.612Z,29.30
2019-05-20T20:27:50.486Z,28.17
2019-05-20T20:32:57.718Z,24.55
2019-05-20T20:38:04.605Z,19.75
2019-05-20T20:43:11.477Z,19.23
2019-05-20T20:48:18.513Z,19.07
2019-05-20T20:53:25.605Z,19.00
2019-05-20T20:58:32.587Z,20.88
2019-05-20T21:03:39.580Z,22.30
2019-05-20T21:08:46.609Z,20.90
2019-05-20T21:13:53.493Z,20.50
2019-05-20T21:19:00.494Z,20.62
2019-05-20T21:24:07.582Z,22.05
2019-05-20T21:29:14.578Z,20.77
2019-05-20T21:34:21.538Z,26.52
2019-05-20T21:39:28.498Z,27.73
2019-05-20T21:44:35.506Z,25.62
2019-05-20T21:49:42.480Z,30.70
2019-05-20T21:54:49.599Z,30.02
2019-05-20T21:59:56.495Z,25.62
2019-05-20T22:05:03.577Z,24.12
2019-05-20T22:10:12.114Z,24.82
2019-05-20T22:15:19.439Z,27.67
2019-05-20T22:20:26.561Z,29.65
2019-05-20T22:25:33.622Z,29.98
2019-05-20T22:30:40.595Z,26.23
2019-05-20T22:35:47.600Z,26.77
2019-05-20T22:40:54.523Z,26.20
2019-05-20T22:46:01.593Z,26.10
2019-05-20T22:51:09.438Z,28.65
2019-05-20T22:56:16.482Z,27.98
2019-05-20T23:01:23.487Z,27.22
2019-05-20T23:06:30.643Z,26.65
2019-05-20T23:11:37.578Z,25.90
2019-05-20T23:16:44.500Z,30.15
2019-05-20T23:21:51.474Z,32.42
2019-05-20T23:26:58.575Z,30.95
2019-05-20T23:32:05.548Z,29.45
2019-05-20T23:37:12.597Z,28.92
2019-05-20T23:42:19.469Z,30.45
2019-05-20T23:47:26.441Z,32.85
2019-05-20T23:52:33.590Z,32.58
2019-05-20T23:57:40.460Z,30.80
